Flight Track Log - Related Links

Times and Time Zones

All times are in EDT time to prevent confusion due to time zone crossing. See the N27XP flight status page for this flight to view local times or setup timezone preferences in your user account.

Time Position Orientation Groundspeed Altitude Reporting Facility
EDT Latitude Longitude Course Direction KTS MPH feet Rate Location/Type
Mon 09:58:28 AM 33.4736 -79.4239 325° Northwest 258 297 6,400  Level Jacksonville Center
Mon 09:59:28 AM 33.5292 -79.4692 326° Northwest 276 318 9,300 2,700 Climbing Jacksonville Center
Mon 10:00:28 AM 33.5953 -79.5214 327° Northwest 286 329 11,800 2,200 Climbing Jacksonville Center
Mon 10:01:00 AM 33.6158 -79.5713 325° Northwest  Level Estimated
Mon 10:01:28 AM 33.6719 -79.5783 328° Northwest 302 348 13,700  Level Jacksonville Center
Mon 10:02:00 AM 33.6762 -79.6224 325° Northwest  Level FlightAware Approximate
Mon 10:02:28 AM 33.7589 -79.6400 329° Northwest 334 384 15,000  Level Jacksonville Center
Mon 10:03:00 AM 33.7367 -79.6735 325° Northwest  Level FlightAware Approximate
Mon 10:03:28 AM 33.8483 -79.7019 330° Northwest 358 412 15,900  Level Jacksonville Center
Mon 10:04:28 AM 33.9417 -79.7661 330° Northwest 378 435 15,900  Level Jacksonville Center
Mon 10:05:28 AM 34.0350 -79.8328 329° Northwest 392 451 15,900  Level Jacksonville Center
Mon 10:06:28 AM 34.1286 -79.8997 329° Northwest 392 451 15,900  Level Jacksonville Center
Mon 10:07:28 AM 34.2197 -79.9644 330° Northwest 392 451 15,900  Level Jacksonville Center
Mon 10:08:28 AM 34.3111 -80.0342 328° Northwest 392 451 15,900 -100 Level Jacksonville Center
Mon 10:09:28 AM 34.4022 -80.0967 330° Northwest 392 451 15,700 -556 Descending Jacksonville Center
Mon 10:11:10 AM 34.5611 -80.2150 328° Northwest 394 453 14,400 -626 Descending Atlanta Center
Mon 10:12:11 AM 34.6617 -80.2911 328° Northwest 393 452 14,000 -186 Descending Atlanta Center
Mon 10:13:19 AM 34.7397 -80.3914 313° West 374 430 14,000 -639 Level Atlanta Center
Mon 10:14:13 AM 34.8286 -80.4331 339° North 356 410 12,700 -1,918 Descending Atlanta Center
Mon 10:15:21 AM 34.9300 -80.4742 342° North 343 395 10,100 -2,279 Descending Atlanta Center
Mon 10:16:22 AM 35.0147 -80.5189 337° Northwest 310 357 7,800 -1,770 Descending Atlanta Center
Mon 10:17:23 AM 35.0867 -80.5511 340° North 270 311 6,500 -1,279 Descending Atlanta Center
Mon 10:18:24 AM 35.1606 -80.5886 337° Northwest 265 305 5,200 -738 Descending Atlanta Center
Mon 10:19:25 AM 35.2283 -80.6189 340° North 263 303 5,000 -108 Descending Atlanta Center
Mon 10:20:15 AM 35.2897 -80.6494 338° Northwest 277 319 5,000  Level Atlanta Center
Mon 10:21:22 AM 35.3700 -80.6869 339° North 287 330 5,000  Level Atlanta Center
Mon 10:22:23 AM 35.4417 -80.7197 340° North 280 322 5,000  Level Atlanta Center
Mon 10:23:24 AM 35.5117 -80.7553 338° Northwest 241 277 5,000 -344 Level Atlanta Center
Mon 10:24:25 AM 35.5567 -80.8044 318° Northwest 222 255 4,300 -787 Descending Atlanta Center
Mon 10:25:26 AM 35.5978 -80.8642 310° West 218 251 3,400 -689 Descending Atlanta Center
Mon 10:26:27 AM 35.5956 -80.9358 268° West 214 246 2,900 -410 Descending Atlanta Center
Mon 10:27:23 AM 35.5847 -80.9975 258° West 204 235 2,600 -148 Descending Atlanta Center
Mon 10:28:29 AM 35.5611 -81.0594 245° Southwest 164 189 2,600 -246 Level Atlanta Center
Mon 10:29:25 AM 35.5347 -81.0936 227° Southwest 141 162 2,100 -536 Descending Atlanta Center

Login

Don't have an account? Register now (free) for customized features, flight alerts, and more!